Sy Merry Mary — DB6308 — position and weather

sailwx.info

Track history (hours):
 
Tides and Currents Weather Stations Pressure Air Temp Water Temp Dewpoint Dewpoint Depression Visibility Wind Speed Wind Dir Waves Ship Positions

Sy Merry Mary

Last reported at 2017-Nov-11 16:59 UTC. Time now 2017-Nov-18 08:26 UTC.
Position N 28°28' W 016°15'.

Length 12 m.

Type: Sailing vessel. MMSI: 211373560.

Date/timePositionNaut miles runAvg speedWind from/ knotsBaromVisibWave heightAir tempDewpointWater temp
2017-Nov-11 16:59N 28°28' W 016°15'0 0.2
2017-Nov-11 15:25N 28°28' W 016°15'2 4.6
2017-Nov-11 14:53N 28°29' W 016°12'4 6.4
2017-Nov-11 14:13N 28°31' W 016°08'2 5.7
2017-Nov-11 13:55N 28°33' W 016°07'3 5.3
2017-Nov-11 13:23N 28°35' W 016°06'37 6.6
2017-Nov-11 07:49N 29°08' W 015°46'3 6.7
2017-Nov-11 07:20N 29°10' W 015°44'2 6.8
2017-Nov-11 07:00N 29°12' W 015°43'3 6.7
2017-Nov-11 06:30N 29°15' W 015°41'5 6.7
2017-Nov-11 05:48N 29°19' W 015°38'3 6.6
2017-Nov-11 05:25N 29°21' W 015°37'3 6.5
2017-Nov-11 05:00N 29°23' W 015°35'3 6.5
2017-Nov-11 04:29N 29°26' W 015°33'3 6.5
2017-Nov-11 04:00N 29°29' W 015°31'3 6.9
2017-Nov-11 03:30N 29°32' W 015°29'3 6.9
2017-Nov-11 03:00N 29°34' W 015°26'3 7.0
2017-Nov-11 02:30N 29°37' W 015°24'4 7.0
2017-Nov-11 02:00N 29°40' W 015°22'3 6.9
2017-Nov-11 01:30N 29°43' W 015°20'4 7.0
2017-Nov-11 00:59N 29°46' W 015°17'3 7.2
2017-Nov-11 00:30N 29°49' W 015°15'4 7.3
2017-Nov-10 23:59N 29°52' W 015°12'4 7.2
2017-Nov-10 23:29N 29°55' W 015°10'3 7.2
2017-Nov-10 23:00N 29°58' W 015°08'4 7.4
2017-Nov-10 22:30N 30°01' W 015°05'17 7.3
2017-Nov-10 20:12N 30°15' W 014°54'1 7.1
2017-Nov-10 20:00N 30°16' W 014°53'4 7.1
2017-Nov-10 19:30N 30°19' W 014°51'4 7.0
2017-Nov-10 19:00N 30°22' W 014°49'4 7.1
2017-Nov-10 18:30N 30°25' W 014°46'3 6.9
2017-Nov-10 18:00N 30°28' W 014°44'4 7.1
2017-Nov-10 17:30N 30°31' W 014°42'4 7.0
2017-Nov-10 17:00N 30°34' W 014°40'4 7.0
2017-Nov-10 16:30N 30°36' W 014°38'4 7.1
2017-Nov-10 16:00N 30°39' W 014°36'4 7.1
2017-Nov-10 15:30N 30°42' W 014°33'3 6.8
2017-Nov-10 15:00N 30°45' W 014°31'3 6.8
2017-Nov-10 14:30N 30°48' W 014°29'3 6.9
2017-Nov-10 14:00N 30°51' W 014°27'4 7.1
2017-Nov-10 13:30N 30°54' W 014°25'3 6.9
2017-Nov-10 13:00N 30°57' W 014°22'4 7.2
2017-Nov-10 12:30N 31°00' W 014°20'4 7.1
2017-Nov-10 12:00N 31°03' W 014°18'4 7.0
2017-Nov-10 11:30N 31°06' W 014°16'3 6.4
2017-Nov-10 11:00N 31°09' W 014°14'3 6.2
2017-Nov-10 10:30N 31°11' W 014°12'  
Track history (hours):
 
Tides and Currents Weather Stations Pressure Air Temp Water Temp Dewpoint Dewpoint Depression Visibility Wind Speed Wind Dir Waves Ship Positions

Sy Merry Mary

Last reported at 2017-Nov-11 16:59 UTC. Time now 2017-Nov-18 08:26 UTC.
Position N 28°28' W 016°15'.

Length 12 m.

Type: Sailing vessel. MMSI: 211373560.

Date/timePositionNaut miles runAvg speedWind from/ knotsBaromVisibWave heightAir tempDewpointWater temp
2017-Nov-11 16:59N 28°28' W 016°15'0 0.2
2017-Nov-11 15:25N 28°28' W 016°15'2 4.6
2017-Nov-11 14:53N 28°29' W 016°12'4 6.4
2017-Nov-11 14:13N 28°31' W 016°08'2 5.7
2017-Nov-11 13:55N 28°33' W 016°07'3 5.3
2017-Nov-11 13:23N 28°35' W 016°06'37 6.6
2017-Nov-11 07:49N 29°08' W 015°46'3 6.7
2017-Nov-11 07:20N 29°10' W 015°44'2 6.8
2017-Nov-11 07:00N 29°12' W 015°43'3 6.7
2017-Nov-11 06:30N 29°15' W 015°41'5 6.7
2017-Nov-11 05:48N 29°19' W 015°38'3 6.6
2017-Nov-11 05:25N 29°21' W 015°37'3 6.5
2017-Nov-11 05:00N 29°23' W 015°35'3 6.5
2017-Nov-11 04:29N 29°26' W 015°33'3 6.5
2017-Nov-11 04:00N 29°29' W 015°31'3 6.9
2017-Nov-11 03:30N 29°32' W 015°29'3 6.9
2017-Nov-11 03:00N 29°34' W 015°26'3 7.0
2017-Nov-11 02:30N 29°37' W 015°24'4 7.0
2017-Nov-11 02:00N 29°40' W 015°22'3 6.9
2017-Nov-11 01:30N 29°43' W 015°20'4 7.0
2017-Nov-11 00:59N 29°46' W 015°17'3 7.2
2017-Nov-11 00:30N 29°49' W 015°15'4 7.3
2017-Nov-10 23:59N 29°52' W 015°12'4 7.2
2017-Nov-10 23:29N 29°55' W 015°10'3 7.2
2017-Nov-10 23:00N 29°58' W 015°08'4 7.4
2017-Nov-10 22:30N 30°01' W 015°05'17 7.3
2017-Nov-10 20:12N 30°15' W 014°54'1 7.1
2017-Nov-10 20:00N 30°16' W 014°53'4 7.1
2017-Nov-10 19:30N 30°19' W 014°51'4 7.0
2017-Nov-10 19:00N 30°22' W 014°49'4 7.1
2017-Nov-10 18:30N 30°25' W 014°46'3 6.9
2017-Nov-10 18:00N 30°28' W 014°44'4 7.1
2017-Nov-10 17:30N 30°31' W 014°42'4 7.0
2017-Nov-10 17:00N 30°34' W 014°40'4 7.0
2017-Nov-10 16:30N 30°36' W 014°38'4 7.1
2017-Nov-10 16:00N 30°39' W 014°36'4 7.1
2017-Nov-10 15:30N 30°42' W 014°33'3 6.8
2017-Nov-10 15:00N 30°45' W 014°31'3 6.8
2017-Nov-10 14:30N 30°48' W 014°29'3 6.9
2017-Nov-10 14:00N 30°51' W 014°27'4 7.1
2017-Nov-10 13:30N 30°54' W 014°25'3 6.9
2017-Nov-10 13:00N 30°57' W 014°22'4 7.2
2017-Nov-10 12:30N 31°00' W 014°20'4 7.1
2017-Nov-10 12:00N 31°03' W 014°18'4 7.0
2017-Nov-10 11:30N 31°06' W 014°16'3 6.4
2017-Nov-10 11:00N 31°09' W 014°14'3 6.2
2017-Nov-10 10:30N 31°11' W 014°12'  

Dump ship's entire track history